Time;durP1;ratioP1;P1;durP2;ratioP2;P2;SDS_P1;SDS_P2;PMS_P1;PMS_P2;Temp;Humidity;BMP_temperature;BMP_pressure;BME280_temperature;BME280_humidity;BME280_pressure;Samples;Min_cycle;Max_cycle;Signal;HPM_P1;HPM_P2
2023/12/07 00:01:25;;;;;;;57.67;24.17;;;;;;;;;;5073479;28;20926;-67
2023/12/07 00:03:54;;;;;;;50.10;22.40;;;;;;;;;;5055695;28;20907;-67
2023/12/07 00:06:25;;;;;;;52.77;23.07;;;;;;;;;;5073974;28;20400;-67
2023/12/07 00:08:54;;;;;;;55.97;23.33;;;;;;;;;;5073358;28;20413;-67
2023/12/07 00:11:25;;;;;;;54.57;23.20;;;;;;;;;;5055292;28;20911;-67
2023/12/07 00:13:53;;;;;;;55.23;24.13;;;;;;;;;;5054884;28;20832;-67
2023/12/07 00:16:20;;;;;;;60.93;23.00;;;;;;;;;;5055088;28;20458;-67
2023/12/07 00:18:48;;;;;;;56.07;24.33;;;;;;;;;;5022609;28;20440;-67
2023/12/07 00:21:16;;;;;;;54.17;22.00;;;;;;;;;;5056091;28;20487;-67
2023/12/07 00:23:43;;;;;;;56.60;24.30;;;;;;;;;;5055268;28;20994;-67
2023/12/07 00:26:11;;;;;;;53.10;24.00;;;;;;;;;;5055227;28;20427;-67
2023/12/07 00:28:38;;;;;;;57.40;23.87;;;;;;;;;;5038975;28;20428;-67
2023/12/07 00:31:05;;;;;;;56.70;24.30;;;;;;;;;;5072747;28;20417;-67
2023/12/07 00:33:34;;;;;;;55.67;23.67;;;;;;;;;;5040693;28;20427;-67
2023/12/07 00:36:00;;;;;;;55.13;23.43;;;;;;;;;;5076083;28;20424;-67
2023/12/07 00:38:28;;;;;;;55.23;24.33;;;;;;;;;;5058881;28;20749;-66
2023/12/07 00:40:56;;;;;;;56.53;24.47;;;;;;;;;;5058565;28;20460;-66
2023/12/07 00:43:23;;;;;;;53.30;23.97;;;;;;;;;;5075444;28;20813;-67
2023/12/07 00:45:50;;;;;;;55.03;23.67;;;;;;;;;;5059231;28;20428;-67
2023/12/07 00:48:17;;;;;;;56.37;23.50;;;;;;;;;;5076140;28;20933;-67
2023/12/07 00:51:02;;;;;;;55.63;23.57;;;;;;;;;;5044606;28;20973;-67
2023/12/07 00:53:29;;;;;;;54.50;22.70;;;;;;;;;;5058907;28;20821;-67
2023/12/07 00:56:13;;;;;;;57.60;24.00;;;;;;;;;;5061078;28;20434;-67
2023/12/07 00:58:40;;;;;;;56.00;23.37;;;;;;;;;;5076407;28;20417;-67
2023/12/07 01:01:08;;;;;;;58.90;24.03;;;;;;;;;;5076361;28;20779;-67
2023/12/07 01:03:35;;;;;;;60.73;24.07;;;;;;;;;;5076852;28;20482;-67
2023/12/07 01:06:02;;;;;;;51.53;23.03;;;;;;;;;;5042491;28;20420;-67
2023/12/07 01:12:36;;;;;;;59.23;23.10;;;;;;;;;;5076068;28;20352;-67
2023/12/07 01:47:52;;;;;;;52.37;20.47;;;;;;;;;;4854080;28;20859;-66
2023/12/07 01:50:23;;;;;;;49.27;21.57;;;;;;;;;;5041513;28;20760;-67
2023/12/07 01:52:55;;;;;;;55.57;22.90;;;;;;;;;;5075227;28;20391;-67
2023/12/07 01:55:22;;;;;;;56.30;23.17;;;;;;;;;;5058099;28;20381;-66
2023/12/07 01:57:50;;;;;;;55.43;23.60;;;;;;;;;;5057601;28;20468;-67
2023/12/07 02:00:17;;;;;;;55.20;22.63;;;;;;;;;;5074033;28;20436;-67
2023/12/07 02:03:05;;;;;;;47.40;20.77;;;;;;;;;;5073678;28;20772;-67
2023/12/07 02:05:32;;;;;;;54.03;21.87;;;;;;;;;;5040781;28;20420;-67
2023/12/07 02:08:20;;;;;;;49.23;21.57;;;;;;;;;;5060447;28;20442;-67
2023/12/07 02:10:47;;;;;;;51.10;21.30;;;;;;;;;;5057118;28;20433;-67
2023/12/07 02:13:14;;;;;;;43.23;18.77;;;;;;;;;;5074626;28;20418;-67
2023/12/07 02:15:41;;;;;;;54.60;21.50;;;;;;;;;;5040784;28;20428;-67
2023/12/07 02:18:16;;;;;;;44.80;19.57;;;;;;;;;;5057700;28;20822;-67
2023/12/07 02:20:43;;;;;;;56.57;23.33;;;;;;;;;;5058241;28;20440;-67
2023/12/07 02:23:10;;;;;;;53.53;21.60;;;;;;;;;;5057190;28;20909;-67
2023/12/07 02:25:41;;;;;;;49.97;21.53;;;;;;;;;;5073508;28;20425;-67
2023/12/07 02:28:08;;;;;;;52.23;20.57;;;;;;;;;;5074693;28;20451;-66
2023/12/07 02:30:35;;;;;;;56.03;22.60;;;;;;;;;;5056929;28;20420;-67
2023/12/07 02:33:01;;;;;;;53.00;21.77;;;;;;;;;;5056803;28;20432;-66
2023/12/07 02:35:45;;;;;;;52.33;22.00;;;;;;;;;;5074315;28;20385;-67
2023/12/07 02:38:12;;;;;;;51.47;20.70;;;;;;;;;;5056616;28;20474;-67
2023/12/07 02:40:38;;;;;;;49.03;20.13;;;;;;;;;;5056445;28;20911;-67
2023/12/07 02:43:05;;;;;;;48.50;20.93;;;;;;;;;;5056301;28;20408;-67
2023/12/07 02:45:32;;;;;;;43.43;19.60;;;;;;;;;;5056512;28;20451;-67
2023/12/07 02:48:17;;;;;;;50.70;20.73;;;;;;;;;;5055723;28;20463;-67
2023/12/07 02:50:43;;;;;;;51.37;20.67;;;;;;;;;;5055181;28;20529;-67
2023/12/07 02:53:27;;;;;;;47.07;21.77;;;;;;;;;;5055586;28;20421;-67
2023/12/07 02:55:54;;;;;;;46.93;19.70;;;;;;;;;;5053787;28;20421;-67
2023/12/07 02:58:38;;;;;;;54.77;22.50;;;;;;;;;;5053964;28;20459;-67
2023/12/07 03:01:05;;;;;;;53.80;22.63;;;;;;;;;;5052839;28;20457;-67
2023/12/07 03:03:32;;;;;;;55.40;21.93;;;;;;;;;;5054391;28;20449;-67
2023/12/07 03:05:59;;;;;;;52.13;21.33;;;;;;;;;;5052456;28;20421;-67
2023/12/07 03:08:28;;;;;;;54.37;22.90;;;;;;;;;;5052962;28;20781;-67
2023/12/07 03:11:13;;;;;;;50.30;20.17;;;;;;;;;;5053810;28;20413;-67
2023/12/07 03:13:41;;;;;;;55.87;22.03;;;;;;;;;;5052823;28;20444;-67
2023/12/07 03:16:10;;;;;;;50.27;21.20;;;;;;;;;;5052913;28;20406;-67
2023/12/07 03:18:40;;;;;;;51.17;20.83;;;;;;;;;;5052926;28;20457;-67
2023/12/07 03:21:07;;;;;;;48.23;20.20;;;;;;;;;;5019750;28;20429;-67
2023/12/07 03:23:35;;;;;;;57.57;22.83;;;;;;;;;;5069471;28;20500;-67
2023/12/07 03:26:03;;;;;;;58.43;21.43;;;;;;;;;;5036313;28;20513;-67
2023/12/07 03:28:30;;;;;;;53.37;21.00;;;;;;;;;;5056667;28;20439;-66
2023/12/07 03:30:58;;;;;;;49.50;19.83;;;;;;;;;;5073120;28;20416;-67
2023/12/07 03:33:25;;;;;;;59.27;21.87;;;;;;;;;;5072490;28;20440;-67
2023/12/07 03:35:51;;;;;;;49.00;20.97;;;;;;;;;;5073445;28;20937;-67
2023/12/07 03:38:35;;;;;;;46.83;21.23;;;;;;;;;;5073615;28;20428;-67
2023/12/07 03:41:02;;;;;;;50.43;20.77;;;;;;;;;;5072807;28;20424;-67
2023/12/07 03:43:46;;;;;;;50.07;21.27;;;;;;;;;;5087007;28;20400;-67
2023/12/07 03:46:12;;;;;;;47.43;20.97;;;;;;;;;;5072127;28;20413;-67
2023/12/07 03:48:56;;;;;;;49.93;19.90;;;;;;;;;;5066405;28;20468;-67
2023/12/07 03:51:23;;;;;;;54.17;20.50;;;;;;;;;;5070002;28;20422;-67
2023/12/07 03:53:50;;;;;;;49.63;19.80;;;;;;;;;;5068924;28;20532;-67
2023/12/07 03:56:25;;;;;;;52.27;20.53;;;;;;;;;;5035311;28;20940;-67
2023/12/07 03:58:53;;;;;;;51.30;20.63;;;;;;;;;;5048318;28;20458;-67
2023/12/07 04:01:23;;;;;;;45.20;19.50;;;;;;;;;;5048956;28;20476;-67
2023/12/07 04:03:52;;;;;;;51.20;20.47;;;;;;;;;;5048849;28;20410;-66
2023/12/07 04:06:21;;;;;;;53.77;21.67;;;;;;;;;;5048346;28;20414;-68
2023/12/07 04:08:54;;;;;;;58.83;21.87;;;;;;;;;;5035684;28;20749;-68
2023/12/07 04:11:27;;;;;;;58.80;21.57;;;;;;;;;;5052158;28;20426;-69
2023/12/07 04:13:57;;;;;;;56.47;22.37;;;;;;;;;;5052155;28;20485;-67
2023/12/07 04:16:27;;;;;;;52.73;20.50;;;;;;;;;;5037845;28;20944;-69
2023/12/07 04:18:59;;;;;;;54.37;20.47;;;;;;;;;;5052132;28;20499;-69
2023/12/07 04:21:26;;;;;;;52.97;21.93;;;;;;;;;;5052035;28;20410;-69
2023/12/07 04:23:53;;;;;;;54.47;21.73;;;;;;;;;;5037234;28;20414;-68
2023/12/07 04:26:21;;;;;;;58.60;23.10;;;;;;;;;;5037295;28;20438;-69
2023/12/07 04:28:51;;;;;;;52.47;20.97;;;;;;;;;;5052422;28;20900;-69
2023/12/07 04:31:21;;;;;;;56.13;21.93;;;;;;;;;;5052019;28;20458;-69
2023/12/07 04:33:49;;;;;;;51.77;20.70;;;;;;;;;;5037008;28;20484;-69
2023/12/07 04:36:17;;;;;;;53.50;21.43;;;;;;;;;;5035634;28;20487;-69
2023/12/07 04:38:46;;;;;;;56.13;21.30;;;;;;;;;;5052200;28;20458;-69
2023/12/07 04:41:14;;;;;;;51.33;20.70;;;;;;;;;;5036883;28;20426;-69
2023/12/07 04:43:42;;;;;;;52.33;22.37;;;;;;;;;;5052253;28;20410;-69
2023/12/07 04:46:11;;;;;;;52.80;22.07;;;;;;;;;;5035562;28;20523;-69
2023/12/07 04:48:42;;;;;;;58.27;22.30;;;;;;;;;;5065612;28;20447;-69
2023/12/07 04:51:10;;;;;;;58.37;22.70;;;;;;;;;;5075504;28;20957;-69
2023/12/07 04:53:37;;;;;;;54.03;22.03;;;;;;;;;;5053087;28;20790;-69
2023/12/07 04:59:57;;;;;;;59.33;21.40;;;;;;;;;;5067065;28;20828;-69
2023/12/07 05:02:27;;;;;;;51.40;19.90;;;;;;;;;;5067209;28;20775;-70
2023/12/07 05:04:55;;;;;;;56.30;22.10;;;;;;;;;;5032929;28;20456;-69
2023/12/07 05:07:23;;;;;;;53.97;21.33;;;;;;;;;;5049292;28;20424;-69
2023/12/07 05:09:50;;;;;;;57.20;22.73;;;;;;;;;;5032683;28;20429;-70
2023/12/07 05:12:17;;;;;;;52.73;21.13;;;;;;;;;;5048926;28;20474;-69
2023/12/07 05:14:44;;;;;;;53.10;21.97;;;;;;;;;;5066943;28;20470;-68
2023/12/07 05:17:11;;;;;;;50.30;20.00;;;;;;;;;;5066839;28;20547;-69
2023/12/07 05:19:38;;;;;;;49.30;20.43;;;;;;;;;;5065665;28;20440;-69
2023/12/07 05:22:05;;;;;;;51.43;21.70;;;;;;;;;;5048349;28;20827;-69
2023/12/07 05:24:34;;;;;;;50.53;21.23;;;;;;;;;;5066614;28;20421;-69
2023/12/07 05:27:01;;;;;;;49.63;19.63;;;;;;;;;;5049080;28;20424;-68
2023/12/07 05:29:28;;;;;;;54.30;21.27;;;;;;;;;;5066568;28;20416;-69
2023/12/07 05:31:54;;;;;;;55.67;22.60;;;;;;;;;;5048673;28;20523;-70
2023/12/07 05:34:21;;;;;;;53.03;23.67;;;;;;;;;;5048566;28;20458;-68
2023/12/07 05:36:48;;;;;;;50.90;21.40;;;;;;;;;;5066390;28;20424;-68
2023/12/07 05:39:17;;;;;;;49.13;20.97;;;;;;;;;;5066402;28;20452;-68
2023/12/07 05:41:45;;;;;;;51.90;21.40;;;;;;;;;;5048373;28;20832;-68
2023/12/07 05:44:11;;;;;;;52.63;23.00;;;;;;;;;;5066300;28;20413;-68
2023/12/07 05:46:43;;;;;;;57.13;24.33;;;;;;;;;;5048222;28;20503;-68
2023/12/07 05:49:10;;;;;;;56.47;22.70;;;;;;;;;;5047990;28;20536;-68
2023/12/07 05:51:37;;;;;;;54.10;23.37;;;;;;;;;;5066215;28;20436;-68
2023/12/07 05:54:04;;;;;;;59.27;23.47;;;;;;;;;;5054844;28;20463;-68
2023/12/07 05:56:31;;;;;;;53.93;21.87;;;;;;;;;;5031598;28;20532;-68
2023/12/07 05:58:57;;;;;;;56.67;21.57;;;;;;;;;;5065924;28;20484;-68
2023/12/07 06:01:24;;;;;;;54.97;23.27;;;;;;;;;;5031502;28;20412;-68
2023/12/07 06:03:52;;;;;;;61.43;24.73;;;;;;;;;;5066030;28;20432;-68
2023/12/07 06:06:21;;;;;;;57.80;23.23;;;;;;;;;;5047541;28;20416;-68
2023/12/07 06:08:48;;;;;;;54.93;23.00;;;;;;;;;;5064768;28;20443;-67
2023/12/07 06:11:16;;;;;;;59.40;23.80;;;;;;;;;;5066266;28;20888;-67
2023/12/07 06:13:44;;;;;;;54.53;22.20;;;;;;;;;;5065957;28;20789;-67
2023/12/07 06:16:13;;;;;;;56.93;22.77;;;;;;;;;;5031540;28;20420;-67
2023/12/07 06:18:39;;;;;;;51.40;22.37;;;;;;;;;;5030897;28;20452;-69
2023/12/07 06:21:06;;;;;;;57.97;24.03;;;;;;;;;;5047727;28;20523;-67
2023/12/07 06:23:50;;;;;;;57.57;25.17;;;;;;;;;;5036037;28;20432;-67
2023/12/07 06:26:17;;;;;;;59.00;23.37;;;;;;;;;;5047248;28;20817;-66
2023/12/07 06:28:44;;;;;;;54.17;23.43;;;;;;;;;;5031048;28;20465;-67
2023/12/07 06:31:12;;;;;;;53.90;21.90;;;;;;;;;;5065283;28;20416;-67
2023/12/07 06:33:38;;;;;;;54.80;22.60;;;;;;;;;;5014601;28;20478;-66
2023/12/07 06:36:05;;;;;;;54.60;23.13;;;;;;;;;;5047306;28;20417;-66
2023/12/07 06:38:32;;;;;;;49.13;21.23;;;;;;;;;;5050212;28;20468;-66
2023/12/07 06:40:59;;;;;;;45.83;20.20;;;;;;;;;;5039811;28;20494;-64
2023/12/07 06:43:26;;;;;;;53.57;21.57;;;;;;;;;;5057125;28;20435;-66
2023/12/07 06:45:53;;;;;;;55.93;21.27;;;;;;;;;;5056839;28;20428;-66
2023/12/07 06:48:25;;;;;;;47.87;21.00;;;;;;;;;;5056686;28;20468;-66
2023/12/07 06:50:52;;;;;;;50.63;22.07;;;;;;;;;;5056635;28;20474;-66
2023/12/07 06:53:19;;;;;;;57.27;22.07;;;;;;;;;;5056702;28;20460;-67
2023/12/07 06:55:46;;;;;;;52.33;20.43;;;;;;;;;;5040714;28;20428;-68
2023/12/07 06:58:14;;;;;;;50.03;21.23;;;;;;;;;;5075794;28;20455;-68
2023/12/07 07:00:41;;;;;;;51.20;21.40;;;;;;;;;;5076650;28;20419;-68
2023/12/07 07:03:08;;;;;;;53.43;22.77;;;;;;;;;;5059544;28;20453;-68
2023/12/07 07:05:35;;;;;;;55.83;22.97;;;;;;;;;;5093210;28;20432;-69
2023/12/07 07:08:02;;;;;;;52.70;21.97;;;;;;;;;;5093071;28;20424;-69
2023/12/07 07:10:29;;;;;;;56.77;22.50;;;;;;;;;;5059916;28;20439;-67
2023/12/07 07:13:00;;;;;;;53.87;23.17;;;;;;;;;;5076418;28;20430;-68
2023/12/07 07:15:26;;;;;;;55.80;23.03;;;;;;;;;;5047544;28;22089;-67
2023/12/07 07:17:53;;;;;;;56.73;23.23;;;;;;;;;;5049628;28;21629;-68
2023/12/07 07:20:37;;;;;;;62.50;25.30;;;;;;;;;;5055561;28;20414;-68
2023/12/07 07:23:04;;;;;;;61.83;24.20;;;;;;;;;;5037914;28;20440;-67
2023/12/07 07:25:31;;;;;;;58.07;23.27;;;;;;;;;;5053526;28;21043;-68
2023/12/07 07:27:58;;;;;;;63.67;26.47;;;;;;;;;;5066757;28;20522;-68
2023/12/07 07:30:25;;;;;;;54.67;23.93;;;;;;;;;;5066554;28;20439;-68
2023/12/07 07:33:09;;;;;;;62.47;24.20;;;;;;;;;;5084952;28;20396;-68
2023/12/07 07:35:36;;;;;;;61.57;24.40;;;;;;;;;;5066849;28;20463;-68
2023/12/07 07:38:03;;;;;;;52.93;23.43;;;;;;;;;;5084752;28;20467;-68
2023/12/07 07:40:30;;;;;;;56.27;23.30;;;;;;;;;;5065811;28;20431;-68
2023/12/07 07:42:57;;;;;;;59.57;23.27;;;;;;;;;;5083296;28;20428;-67
2023/12/07 07:45:24;;;;;;;65.77;24.63;;;;;;;;;;5066379;28;20423;-69
2023/12/07 07:47:51;;;;;;;63.03;24.53;;;;;;;;;;5084218;28;20490;-68
2023/12/07 07:50:18;;;;;;;56.13;22.53;;;;;;;;;;5066364;28;20937;-69
2023/12/07 07:52:45;;;;;;;55.00;22.37;;;;;;;;;;5069247;28;20484;-68
2023/12/07 07:55:12;;;;;;;59.23;22.57;;;;;;;;;;5075625;28;20438;-68
2023/12/07 07:57:39;;;;;;;62.67;24.03;;;;;;;;;;5074652;28;20491;-68
2023/12/07 08:00:08;;;;;;;58.80;23.50;;;;;;;;;;5075034;28;20974;-68
2023/12/07 08:10:34;;;;;;;57.03;23.27;;;;;;;;;;5073311;28;20410;-68
2023/12/07 08:13:20;;;;;;;54.37;22.67;;;;;;;;;;5041392;28;20929;-68
2023/12/07 08:15:47;;;;;;;53.40;23.07;;;;;;;;;;5073561;28;20544;-68
2023/12/07 08:22:08;;;;;;;73.13;29.90;;;;;;;;;;5072750;28;20790;-68
2023/12/07 08:24:35;;;;;;;56.13;23.63;;;;;;;;;;5072863;28;20514;-68
2023/12/07 08:27:03;;;;;;;63.33;24.40;;;;;;;;;;5039435;28;20460;-68
2023/12/07 08:29:30;;;;;;;60.57;25.50;;;;;;;;;;5055986;28;20460;-68
2023/12/07 08:31:57;;;;;;;60.03;24.40;;;;;;;;;;5072932;28;20470;-68
2023/12/07 08:34:25;;;;;;;74.97;29.60;;;;;;;;;;5038836;28;20950;-68
2023/12/07 08:36:52;;;;;;;57.30;25.63;;;;;;;;;;5039410;28;20436;-68
2023/12/07 08:39:19;;;;;;;64.30;26.90;;;;;;;;;;5039107;28;20452;-68
2023/12/07 08:41:45;;;;;;;57.23;23.70;;;;;;;;;;5038953;28;20408;-68
2023/12/07 08:44:12;;;;;;;56.27;23.30;;;;;;;;;;5055412;28;20439;-68
2023/12/07 08:46:39;;;;;;;50.70;22.60;;;;;;;;;;5038582;28;20420;-67
2023/12/07 08:49:06;;;;;;;56.73;24.27;;;;;;;;;;5038783;28;20526;-68
2023/12/07 08:51:34;;;;;;;51.97;22.00;;;;;;;;;;5048620;28;20534;-68
2023/12/07 08:54:01;;;;;;;51.70;20.97;;;;;;;;;;5058774;28;20474;-68
2023/12/07 08:56:28;;;;;;;56.07;22.73;;;;;;;;;;5062056;28;20423;-68
2023/12/07 08:58:55;;;;;;;60.03;23.03;;;;;;;;;;5062986;28;20470;-68
2023/12/07 09:01:22;;;;;;;58.27;23.20;;;;;;;;;;5062316;28;20415;-68
2023/12/07 09:03:59;;;;;;;58.63;24.60;;;;;;;;;;5080218;28;20471;-68
2023/12/07 09:06:26;;;;;;;59.73;26.87;;;;;;;;;;5078233;28;20482;-68
2023/12/07 09:12:52;;;;;;;56.70;23.70;;;;;;;;;;5096731;28;20378;-68
2023/12/07 09:15:19;;;;;;;60.20;25.10;;;;;;;;;;5096530;28;20449;-68
2023/12/07 09:17:46;;;;;;;62.17;24.87;;;;;;;;;;5061978;28;20914;-68
2023/12/07 09:20:14;;;;;;;54.63;23.87;;;;;;;;;;5096484;28;20427;-68
2023/12/07 09:22:44;;;;;;;61.00;24.53;;;;;;;;;;5078053;28;20522;-68
2023/12/07 09:25:11;;;;;;;61.33;24.73;;;;;;;;;;5077708;28;20506;-68
2023/12/07 09:31:38;;;;;;;54.60;22.87;;;;;;;;;;5096231;28;20799;-68
2023/12/07 09:34:05;;;;;;;59.63;24.57;;;;;;;;;;5078118;28;20936;-68
2023/12/07 09:36:38;;;;;;;55.90;22.20;;;;;;;;;;5079043;28;20445;-68
2023/12/07 09:39:05;;;;;;;54.17;23.47;;;;;;;;;;5095898;28;20455;-68
2023/12/07 09:41:32;;;;;;;54.17;25.00;;;;;;;;;;5061217;28;20438;-68
2023/12/07 09:44:00;;;;;;;58.73;23.77;;;;;;;;;;5078849;28;20407;-68
2023/12/07 09:46:28;;;;;;;56.50;24.37;;;;;;;;;;5078393;28;20500;-68
2023/12/07 09:48:54;;;;;;;49.80;23.03;;;;;;;;;;5077588;28;20455;-68
2023/12/07 09:51:22;;;;;;;52.30;22.83;;;;;;;;;;5095751;28;20937;-68
2023/12/07 09:53:51;;;;;;;50.33;21.97;;;;;;;;;;5062488;28;20436;-68
2023/12/07 09:56:18;;;;;;;52.43;22.73;;;;;;;;;;5062060;28;20434;-67
2023/12/07 09:59:03;;;;;;;50.63;22.60;;;;;;;;;;5094381;28;20461;-68
2023/12/07 10:01:30;;;;;;;54.07;24.13;;;;;;;;;;5061002;28;20419;-68
2023/12/07 10:07:51;;;;;;;53.30;22.77;;;;;;;;;;5095217;28;20351;-68
2023/12/07 10:10:18;;;;;;;47.70;21.30;;;;;;;;;;5077520;28;20450;-68
2023/12/07 10:12:48;;;;;;;48.80;22.23;;;;;;;;;;5077437;28;20483;-68
2023/12/07 10:19:17;;;;;;;46.10;21.57;;;;;;;;;;5095216;28;20536;-68
2023/12/07 10:21:58;;;;;;;50.10;20.73;;;;;;;;;;5079525;28;20399;-68
2023/12/07 10:24:42;;;;;;;65.87;25.93;;;;;;;;;;5049248;28;20411;-68
2023/12/07 10:27:12;;;;;;;60.10;24.93;;;;;;;;;;5094100;28;20462;-68
2023/12/07 10:29:44;;;;;;;55.40;24.03;;;;;;;;;;5060394;28;20430;-68
2023/12/07 10:36:17;;;;;;;55.93;24.20;;;;;;;;;;5095123;28;20854;-68
2023/12/07 10:38:45;;;;;;;49.17;21.37;;;;;;;;;;5076565;28;20528;-68
2023/12/07 10:41:13;;;;;;;52.97;23.57;;;;;;;;;;5077148;28;20434;-68
2023/12/07 10:43:42;;;;;;;48.80;22.77;;;;;;;;;;5044492;28;20444;-68
2023/12/07 10:46:09;;;;;;;60.77;24.83;;;;;;;;;;5060124;28;20430;-68
2023/12/07 10:48:54;;;;;;;53.10;23.90;;;;;;;;;;5057633;28;20459;-69
2023/12/07 10:55:23;;;;;;;84.30;34.10;;;;;;;;;;5074366;28;20427;-68
2023/12/07 10:57:51;;;;;;;65.33;28.87;;;;;;;;;;5057207;28;20485;-68
2023/12/07 11:00:19;;;;;;;58.97;24.10;;;;;;;;;;5056802;28;20467;-68
2023/12/07 11:02:59;;;;;;;59.73;23.13;;;;;;;;;;5058105;28;20489;-68
2023/12/07 11:05:29;;;;;;;50.23;22.80;;;;;;;;;;5054947;28;20463;-69
2023/12/07 11:08:07;;;;;;;48.07;21.83;;;;;;;;;;5056088;28;20745;-68
2023/12/07 11:10:39;;;;;;;73.63;29.77;;;;;;;;;;5056027;28;20416;-68
2023/12/07 11:13:08;;;;;;;61.03;26.10;;;;;;;;;;5056472;28;20515;-68
2023/12/07 11:19:43;;;;;;;45.93;21.03;;;;;;;;;;5072431;28;20575;-68
2023/12/07 11:29:33;;;;;;;47.43;21.90;;;;;;;;;;5073941;28;20364;-68
2023/12/07 11:32:04;;;;;;;47.77;22.83;;;;;;;;;;5056243;28;20523;-68
2023/12/07 11:34:48;;;;;;;54.57;23.07;;;;;;;;;;5073000;28;20376;-68
2023/12/07 11:37:18;;;;;;;45.57;20.93;;;;;;;;;;5072299;28;20817;-68
2023/12/07 11:39:45;;;;;;;52.67;23.40;;;;;;;;;;5072878;28;20870;-68
2023/12/07 11:42:12;;;;;;;46.77;22.27;;;;;;;;;;5056556;28;20425;-68
2023/12/07 11:44:43;;;;;;;49.43;23.27;;;;;;;;;;5073645;28;20424;-68
2023/12/07 11:47:10;;;;;;;50.30;22.67;;;;;;;;;;5074215;28;21016;-68
2023/12/07 11:49:36;;;;;;;52.00;23.03;;;;;;;;;;5076436;28;20906;-68
2023/12/07 11:55:38;;;;;;;49.90;21.93;;;;;;;;;;5092859;28;20493;-68
2023/12/07 11:58:06;;;;;;;55.40;25.33;;;;;;;;;;5075618;28;20419;-68
2023/12/07 12:00:33;;;;;;;53.00;23.47;;;;;;;;;;5059510;28;20482;-68
2023/12/07 12:02:59;;;;;;;53.03;23.60;;;;;;;;;;5076285;28;20412;-68
2023/12/07 12:05:26;;;;;;;52.90;24.80;;;;;;;;;;5075996;28;20773;-68
2023/12/07 12:07:54;;;;;;;62.60;26.57;;;;;;;;;;5060199;28;20445;-68
2023/12/07 12:14:21;;;;;;;58.53;24.00;;;;;;;;;;5093063;28;20418;-68
2023/12/07 12:20:46;;;;;;;51.47;22.87;;;;;;;;;;5094230;28;20998;-68
2023/12/07 12:23:13;;;;;;;60.50;25.77;;;;;;;;;;5094218;28;20420;-68
2023/12/07 12:29:08;;;;;;;57.47;25.27;;;;;;;;;;5093291;28;20412;-68
2023/12/07 12:31:48;;;;;;;65.67;27.70;;;;;;;;;;5064257;28;20438;-68
2023/12/07 12:34:17;;;;;;;64.93;26.57;;;;;;;;;;5078964;28;20426;-68
2023/12/07 12:36:44;;;;;;;62.80;25.60;;;;;;;;;;5097398;28;20899;-68
2023/12/07 12:39:11;;;;;;;55.63;25.50;;;;;;;;;;5079492;28;20452;-69
2023/12/07 12:41:54;;;;;;;68.93;29.63;;;;;;;;;;5078822;28;20443;-69
2023/12/07 12:52:16;;;;;;;58.97;23.33;;;;;;;;;;5096901;28;20772;-68
2023/12/07 12:54:43;;;;;;;58.00;25.23;;;;;;;;;;5079847;28;20500;-68
2023/12/07 12:57:11;;;;;;;55.57;23.67;;;;;;;;;;5078670;28;20415;-68
2023/12/07 12:59:38;;;;;;;50.87;22.87;;;;;;;;;;5078930;28;20516;-68
2023/12/07 13:02:05;;;;;;;60.87;25.40;;;;;;;;;;5096815;28;20427;-68
2023/12/07 13:04:34;;;;;;;56.47;26.67;;;;;;;;;;5097005;28;20724;-68
2023/12/07 13:07:03;;;;;;;59.03;25.83;;;;;;;;;;5063168;28;20396;-68
2023/12/07 13:09:30;;;;;;;70.47;29.37;;;;;;;;;;5079186;28;20431;-68
2023/12/07 13:11:58;;;;;;;54.43;23.80;;;;;;;;;;5062366;28;20475;-68
2023/12/07 13:14:28;;;;;;;86.73;33.10;;;;;;;;;;5063002;28;20814;-68
2023/12/07 13:16:59;;;;;;;78.27;31.10;;;;;;;;;;5062439;28;20439;-68
2023/12/07 13:19:27;;;;;;;91.97;34.83;;;;;;;;;;5078043;28;20472;-67
2023/12/07 13:21:55;;;;;;;70.57;28.83;;;;;;;;;;5096443;28;20455;-67
2023/12/07 13:24:22;;;;;;;68.03;28.77;;;;;;;;;;5078394;28;20419;-68
2023/12/07 13:26:49;;;;;;;67.53;28.43;;;;;;;;;;5061874;28;20431;-68
2023/12/07 13:29:16;;;;;;;63.03;25.13;;;;;;;;;;5078707;28;20906;-67
2023/12/07 13:31:54;;;;;;;65.70;27.27;;;;;;;;;;5097056;28;20403;-68
2023/12/07 13:34:21;;;;;;;67.93;28.03;;;;;;;;;;5096631;28;20420;-68
2023/12/07 13:36:50;;;;;;;65.83;26.63;;;;;;;;;;5078715;28;20592;-68
2023/12/07 13:39:20;;;;;;;68.07;28.40;;;;;;;;;;5096417;28;20451;-67
2023/12/07 13:41:56;;;;;;;67.90;27.30;;;;;;;;;;5078847;28;20395;-67
2023/12/07 13:44:24;;;;;;;58.37;25.50;;;;;;;;;;5078805;28;20803;-67
2023/12/07 13:47:08;;;;;;;71.47;28.40;;;;;;;;;;5095984;28;20746;-67
2023/12/07 13:49:34;;;;;;;86.77;32.47;;;;;;;;;;5062297;28;20816;-67
2023/12/07 13:52:02;;;;;;;83.47;32.73;;;;;;;;;;5096266;28;20437;-67
2023/12/07 13:54:36;;;;;;;77.47;31.20;;;;;;;;;;5096181;28;20855;-67
2023/12/07 13:57:24;;;;;;;76.60;31.20;;;;;;;;;;5062858;28;20448;-67
2023/12/07 13:59:52;;;;;;;67.37;28.47;;;;;;;;;;5062826;28;20530;-67
2023/12/07 14:02:19;;;;;;;66.70;28.50;;;;;;;;;;5094502;28;20427;-67
2023/12/07 14:04:49;;;;;;;67.47;28.27;;;;;;;;;;5061103;28;20526;-67
2023/12/07 14:07:20;;;;;;;73.37;30.10;;;;;;;;;;5061719;28;20514;-67
2023/12/07 14:10:04;;;;;;;62.60;27.50;;;;;;;;;;5081113;28;20416;-67
2023/12/07 14:12:33;;;;;;;57.23;24.87;;;;;;;;;;5095223;28;20455;-67
2023/12/07 14:15:00;;;;;;;56.63;24.80;;;;;;;;;;5060994;28;20431;-67
2023/12/07 14:17:27;;;;;;;59.50;25.37;;;;;;;;;;5077838;28;20474;-67
2023/12/07 14:20:07;;;;;;;59.87;26.30;;;;;;;;;;5095808;28;20504;-67
2023/12/07 14:22:51;;;;;;;61.70;27.40;;;;;;;;;;5080154;28;20834;-67
2023/12/07 14:25:18;;;;;;;63.07;26.67;;;;;;;;;;5077460;28;20506;-67
2023/12/07 14:27:45;;;;;;;70.00;27.23;;;;;;;;;;5077431;28;20423;-67
2023/12/07 14:30:12;;;;;;;66.40;26.90;;;;;;;;;;5095569;28;20481;-67
2023/12/07 14:32:43;;;;;;;71.03;27.90;;;;;;;;;;5060591;28;20427;-67
2023/12/07 14:35:12;;;;;;;70.07;29.87;;;;;;;;;;5078221;28;20396;-67
2023/12/07 14:37:41;;;;;;;66.67;27.87;;;;;;;;;;5060851;28;20423;-67
2023/12/07 14:40:08;;;;;;;70.47;28.67;;;;;;;;;;5076775;28;20504;-67
2023/12/07 14:42:35;;;;;;;73.60;27.90;;;;;;;;;;5060273;28;20451;-67
2023/12/07 14:45:02;;;;;;;69.83;27.77;;;;;;;;;;5060142;28;20419;-67
2023/12/07 14:47:30;;;;;;;69.83;28.77;;;;;;;;;;5076526;28;20862;-67
2023/12/07 14:49:57;;;;;;;62.13;27.43;;;;;;;;;;5060899;28;20423;-67
2023/12/07 14:55:36;;;;;;;68.13;28.77;;;;;;;;;;5072992;28;20445;-67
2023/12/07 15:02:04;;;;;;;64.03;27.83;;;;;;;;;;5074029;28;20372;-67
2023/12/07 15:04:31;;;;;;;64.13;26.97;;;;;;;;;;5072814;28;20420;-66
2023/12/07 15:07:00;;;;;;;70.03;28.07;;;;;;;;;;5072585;28;20511;-68
2023/12/07 15:09:29;;;;;;;64.07;27.27;;;;;;;;;;5072975;28;20432;-67
2023/12/07 15:11:55;;;;;;;66.80;28.30;;;;;;;;;;5073757;28;20413;-68
2023/12/07 15:14:23;;;;;;;63.30;26.40;;;;;;;;;;5073975;28;20543;-68
2023/12/07 15:17:03;;;;;;;66.63;27.80;;;;;;;;;;5073152;28;20671;-67
2023/12/07 15:19:31;;;;;;;62.87;27.30;;;;;;;;;;5072683;28;20494;-69
2023/12/07 15:21:59;;;;;;;64.83;29.00;;;;;;;;;;5072672;28;20428;-69
2023/12/07 15:24:26;;;;;;;63.23;27.83;;;;;;;;;;5074243;28;20420;-66
2023/12/07 15:27:03;;;;;;;65.77;27.20;;;;;;;;;;5073427;28;20732;-69
2023/12/07 15:29:30;;;;;;;64.90;27.80;;;;;;;;;;5072148;28;20431;-66
2023/12/07 15:31:56;;;;;;;66.93;28.20;;;;;;;;;;5071741;28;20515;-67
2023/12/07 15:34:24;;;;;;;64.20;28.10;;;;;;;;;;5055796;28;20784;-66
2023/12/07 15:37:03;;;;;;;65.90;31.53;;;;;;;;;;5073052;28;20744;-65
2023/12/07 15:39:31;;;;;;;64.10;27.67;;;;;;;;;;5072757;28;20824;-66
2023/12/07 15:41:58;;;;;;;67.17;28.77;;;;;;;;;;5073454;28;20424;-66
2023/12/07 15:44:25;;;;;;;71.30;29.90;;;;;;;;;;5072287;28;20427;-66
2023/12/07 15:46:57;;;;;;;67.17;28.37;;;;;;;;;;5072658;28;20787;-66
2023/12/07 15:49:24;;;;;;;71.00;29.00;;;;;;;;;;5072824;28;20422;-66
2023/12/07 15:51:52;;;;;;;72.10;30.70;;;;;;;;;;5072256;28;20498;-66
2023/12/07 15:54:24;;;;;;;72.23;31.33;;;;;;;;;;5073019;28;20397;-66
2023/12/07 15:57:04;;;;;;;72.27;29.23;;;;;;;;;;5073247;28;20400;-66
2023/12/07 15:59:31;;;;;;;75.30;29.97;;;;;;;;;;5090920;28;20771;-65
2023/12/07 16:01:58;;;;;;;78.10;29.80;;;;;;;;;;5076151;28;20422;-66
2023/12/07 16:04:25;;;;;;;70.23;28.73;;;;;;;;;;5093743;28;20451;-67
2023/12/07 16:07:02;;;;;;;84.50;33.10;;;;;;;;;;5081428;28;20490;-67
2023/12/07 16:09:29;;;;;;;80.47;30.83;;;;;;;;;;5064251;28;20500;-66
2023/12/07 16:12:13;;;;;;;78.23;31.20;;;;;;;;;;5051639;28;20468;-66
2023/12/07 16:14:40;;;;;;;72.43;29.20;;;;;;;;;;5079299;28;20442;-67
2023/12/07 16:17:08;;;;;;;72.70;29.70;;;;;;;;;;5063208;28;20752;-66
2023/12/07 16:19:35;;;;;;;77.10;30.37;;;;;;;;;;5062874;28;20431;-67
2023/12/07 16:22:03;;;;;;;71.63;29.63;;;;;;;;;;5079862;28;20441;-67
2023/12/07 16:24:30;;;;;;;70.03;28.83;;;;;;;;;;5097389;28;20415;-67
2023/12/07 16:26:59;;;;;;;72.40;30.37;;;;;;;;;;5079395;28;20453;-67